Terminal Aerodrome Forecast
Issued by NWS

Home | Current Version | Previous Version | Text Only | Print | Product List | Glossary On
Versions: 1 2 3 4 5 6 7 8 9 10 11 12 13 14
000
FTUS43 KFGF 031100
TAFBJI
TAF
KBJI 031120Z 0312/0412 VRB06KT P6SM OVC025
      TEMPO 0312/0315 5SM -SN OVC015
     FM031600 30015G25KT P6SM BKN040
      TEMPO 0316/0318 BKN025
     FM040000 29015KT P6SM SCT040=

USA.gov is the U.S. government's official web portal to all federal, state and local government web resources and services.